Time;durP1;ratioP1;P1;durP2;ratioP2;P2;SDS_P1;SDS_P2;PMS_P1;PMS_P2;Temp;Humidity;BMP_temperature;BMP_pressure;BME280_temperature;BME280_humidity;BME280_pressure;Samples;Min_cycle;Max_cycle;Signal;HPM_P1;HPM_P2
2021/09/26 00:01:23;;;;;;;10.87;9.97;;;16.80;99.90;;;;;;5129860;27;20250;-73
2021/09/26 00:03:52;;;;;;;11.37;10.27;;;16.80;99.90;;;;;;5129951;27;20246;-72
2021/09/26 00:06:19;;;;;;;11.07;10.17;;;16.80;99.90;;;;;;5129733;27;20257;-72
2021/09/26 00:08:46;;;;;;;11.17;10.23;;;16.80;99.90;;;;;;5129394;27;20552;-72
2021/09/26 00:11:12;;;;;;;10.10;9.40;;;16.80;99.90;;;;;;5129768;27;20690;-72
2021/09/26 00:13:41;;;;;;;11.23;10.40;;;16.80;99.90;;;;;;5129298;27;20655;-73
2021/09/26 00:16:11;;;;;;;10.70;9.70;;;16.80;99.90;;;;;;5129519;27;20201;-72
2021/09/26 00:18:38;;;;;;;10.67;9.70;;;16.80;99.90;;;;;;5129417;27;20201;-71
2021/09/26 00:21:05;;;;;;;11.23;10.23;;;16.80;99.90;;;;;;5127324;27;20745;-72
2021/09/26 00:23:33;;;;;;;11.37;10.37;;;16.80;99.90;;;;;;5127102;27;20209;-71
2021/09/26 00:26:01;;;;;;;12.00;10.90;;;16.80;99.90;;;;;;5119231;27;20205;-71
2021/09/26 00:28:28;;;;;;;12.37;11.00;;;16.80;99.90;;;;;;5108626;28;20690;-71
2021/09/26 00:30:55;;;;;;;11.57;10.70;;;16.80;99.90;;;;;;5108900;28;20265;-71
2021/09/26 00:33:24;;;;;;;12.53;11.43;;;16.80;99.90;;;;;;5107203;28;20204;-71
2021/09/26 00:35:51;;;;;;;12.20;11.03;;;16.80;99.90;;;;;;5107212;28;20205;-73
2021/09/26 00:38:19;;;;;;;11.70;10.57;;;16.80;99.90;;;;;;5106718;28;20205;-72
2021/09/26 00:40:46;;;;;;;11.73;10.53;;;16.80;99.90;;;;;;5107248;28;20293;-72
2021/09/26 00:43:13;;;;;;;12.83;11.73;;;16.80;99.90;;;;;;5106961;28;20206;-72
2021/09/26 00:45:40;;;;;;;11.77;10.87;;;16.80;99.90;;;;;;5106311;28;20300;-72
2021/09/26 00:48:07;;;;;;;11.27;10.37;;;16.80;99.90;;;;;;5106438;28;20326;-73
2021/09/26 00:50:35;;;;;;;12.53;11.40;;;16.80;99.90;;;;;;5105896;28;20210;-73
2021/09/26 00:53:02;;;;;;;12.00;11.10;;;16.80;99.90;;;;;;5108281;28;20682;-72
2021/09/26 00:55:30;;;;;;;12.43;11.33;;;16.80;99.90;;;;;;5108408;28;20206;-72
2021/09/26 00:57:58;;;;;;;12.77;11.77;;;16.80;99.90;;;;;;5108382;28;20230;-72
2021/09/26 01:00:26;;;;;;;12.37;11.37;;;16.90;99.90;;;;;;5108421;28;20587;-72
2021/09/26 01:02:53;;;;;;;11.60;10.70;;;16.90;99.90;;;;;;5108072;28;20727;-72
2021/09/26 01:05:21;;;;;;;12.30;11.20;;;16.90;99.90;;;;;;5108220;28;20244;-73
2021/09/26 01:08:07;;;;;;;11.93;10.93;;;16.90;99.90;;;;;;5108345;28;20206;-73
2021/09/26 01:10:43;;;;;;;11.73;10.73;;;16.80;99.90;;;;;;5106979;27;20202;-73
2021/09/26 01:13:22;;;;;;;12.30;10.97;;;16.80;99.90;;;;;;5109673;28;20579;-72
2021/09/26 01:16:03;;;;;;;11.87;10.93;;;16.80;99.90;;;;;;5112223;28;20190;-73
2021/09/26 01:18:40;;;;;;;12.23;11.07;;;16.80;99.90;;;;;;5111929;28;20637;-72
2021/09/26 01:21:12;;;;;;;12.77;11.57;;;16.80;99.90;;;;;;5111950;28;20239;-72
2021/09/26 01:24:18;;;;;;;12.70;11.60;;;16.80;99.90;;;;;;5112222;28;20186;-72
2021/09/26 01:26:47;;;;;;;12.03;11.10;;;16.80;99.90;;;;;;5112179;28;20212;-72
2021/09/26 01:29:39;;;;;;;12.37;11.37;;;16.70;99.90;;;;;;5112081;28;20210;-72
2021/09/26 01:32:09;;;;;;;12.27;11.20;;;16.70;99.90;;;;;;5111788;28;20764;-72
2021/09/26 01:34:39;;;;;;;12.30;11.30;;;16.70;99.90;;;;;;5111826;27;20816;-72
2021/09/26 01:37:12;;;;;;;11.53;10.53;;;16.70;99.90;;;;;;5112099;28;20206;-73
2021/09/26 01:39:45;;;;;;;12.10;11.00;;;16.60;99.90;;;;;;5111450;28;20667;-72
2021/09/26 01:42:17;;;;;;;12.93;11.73;;;16.70;99.90;;;;;;5112065;28;20198;-72
2021/09/26 01:44:51;;;;;;;11.60;10.60;;;16.60;99.90;;;;;;5111748;28;20354;-72
2021/09/26 01:47:22;;;;;;;12.03;10.87;;;16.60;99.90;;;;;;5112012;28;20262;-74
2021/09/26 01:49:52;;;;;;;11.90;10.90;;;16.50;99.90;;;;;;5111613;28;20259;-74
2021/09/26 01:52:22;;;;;;;11.97;10.97;;;16.50;99.90;;;;;;5111595;28;20229;-73
2021/09/26 01:54:50;;;;;;;13.53;11.30;;;16.50;99.90;;;;;;5111658;28;21040;-74
2021/09/26 01:57:20;;;;;;;11.47;10.57;;;16.40;99.90;;;;;;5111543;28;20203;-74
2021/09/26 01:59:49;;;;;;;11.50;10.43;;;16.40;99.90;;;;;;5111590;28;20198;-73
2021/09/26 02:02:19;;;;;;;11.50;10.50;;;16.40;99.90;;;;;;5111786;28;20284;-72
2021/09/26 02:04:48;;;;;;;11.07;10.10;;;16.40;99.90;;;;;;5111221;28;20255;-72
2021/09/26 02:07:15;;;;;;;11.33;10.43;;;16.40;99.90;;;;;;5111248;28;20287;-71
2021/09/26 02:09:44;;;;;;;12.07;10.87;;;16.40;99.90;;;;;;5111408;28;20226;-71
2021/09/26 02:12:12;;;;;;;12.00;10.90;;;16.40;99.90;;;;;;5111438;28;20276;-71
2021/09/26 02:14:40;;;;;;;12.57;11.33;;;16.40;99.90;;;;;;5111294;28;20638;-71
2021/09/26 02:17:08;;;;;;;11.37;10.47;;;16.40;99.90;;;;;;5111303;28;20421;-72
2021/09/26 02:19:36;;;;;;;11.27;10.30;;;16.40;99.90;;;;;;5111319;28;20214;-72
2021/09/26 02:22:04;;;;;;;12.43;11.23;;;16.40;99.90;;;;;;5111230;28;20213;-72
2021/09/26 02:24:32;;;;;;;13.77;12.43;;;16.50;99.90;;;;;;5109864;28;20241;-72
2021/09/26 02:26:59;;;;;;;13.93;12.50;;;16.50;99.90;;;;;;5110968;28;20831;-72
2021/09/26 02:29:25;;;;;;;12.67;11.50;;;16.50;99.90;;;;;;5110919;28;20279;-72
2021/09/26 02:31:52;;;;;;;12.40;11.37;;;16.50;99.90;;;;;;5110801;28;20257;-71
2021/09/26 02:34:19;;;;;;;12.43;11.33;;;16.50;99.90;;;;;;5111078;28;20247;-71
2021/09/26 02:36:47;;;;;;;13.13;11.77;;;16.60;99.90;;;;;;5110742;28;20259;-71
2021/09/26 02:39:14;;;;;;;11.07;10.07;;;16.60;99.90;;;;;;5110875;28;20286;-71
2021/09/26 02:41:48;;;;;;;12.30;11.10;;;16.60;99.90;;;;;;5111227;28;20691;-71
2021/09/26 02:44:18;;;;;;;11.70;10.70;;;16.60;99.90;;;;;;5110837;28;20267;-71
2021/09/26 02:46:48;;;;;;;11.83;10.73;;;16.60;99.90;;;;;;5110696;28;20194;-71
2021/09/26 02:49:15;;;;;;;12.17;11.13;;;16.60;99.90;;;;;;5109938;28;20252;-71
2021/09/26 02:51:42;;;;;;;13.20;12.07;;;16.60;99.90;;;;;;5109913;27;20688;-73
2021/09/26 02:54:11;;;;;;;12.80;11.60;;;16.60;99.90;;;;;;5110348;28;20242;-73
2021/09/26 02:56:38;;;;;;;13.90;12.70;;;16.60;99.90;;;;;;5110551;28;20268;-72
2021/09/26 02:59:05;;;;;;;12.87;11.63;;;16.50;99.90;;;;;;5110105;27;20230;-72
2021/09/26 03:01:31;;;;;;;12.63;11.53;;;16.40;99.90;;;;;;5110231;28;20206;-72
2021/09/26 03:04:02;;;;;;;12.90;11.70;;;16.50;99.90;;;;;;5110178;28;20206;-73
2021/09/26 03:06:29;;;;;;;12.53;11.47;;;16.50;99.90;;;;;;5109941;28;20638;-72
2021/09/26 03:08:55;;;;;;;13.50;12.20;;;16.50;99.90;;;;;;5109939;28;20225;-72
2021/09/26 03:11:24;;;;;;;12.83;11.73;;;16.50;99.90;;;;;;5110231;28;20237;-73
2021/09/26 03:13:51;;;;;;;13.50;12.20;;;16.60;99.90;;;;;;5109949;28;20202;-73
2021/09/26 03:16:17;;;;;;;12.63;11.43;;;16.60;99.90;;;;;;5110038;28;20210;-73
2021/09/26 03:18:44;;;;;;;13.00;11.90;;;16.60;99.90;;;;;;5110061;28;20688;-73
2021/09/26 03:21:12;;;;;;;13.17;12.07;;;16.60;99.90;;;;;;5110084;28;20291;-72
2021/09/26 03:23:39;;;;;;;12.10;11.13;;;16.60;99.90;;;;;;5109809;28;20271;-73
2021/09/26 03:26:06;;;;;;;12.63;11.53;;;16.60;99.90;;;;;;5109954;27;20259;-72
2021/09/26 03:28:34;;;;;;;12.67;11.47;;;16.60;99.90;;;;;;5109819;28;20198;-72
2021/09/26 03:31:00;;;;;;;13.13;11.77;;;16.60;99.90;;;;;;5109921;27;21176;-73
2021/09/26 03:33:27;;;;;;;12.80;11.67;;;16.60;99.90;;;;;;5109610;28;20234;-73
2021/09/26 03:35:54;;;;;;;13.37;12.00;;;16.60;99.90;;;;;;5109348;28;20206;-72
2021/09/26 03:38:20;;;;;;;12.07;11.07;;;16.60;99.90;;;;;;5109232;28;20672;-72
2021/09/26 03:40:47;;;;;;;13.37;12.17;;;16.60;99.90;;;;;;5109508;28;20229;-72
2021/09/26 03:43:14;;;;;;;11.87;10.80;;;16.60;99.90;;;;;;5109373;28;20236;-71
2021/09/26 03:45:42;;;;;;;12.93;11.77;;;16.60;99.90;;;;;;5109197;28;20243;-71
2021/09/26 03:48:09;;;;;;;12.90;11.80;;;16.60;99.90;;;;;;5109408;28;20669;-71
2021/09/26 03:50:36;;;;;;;12.63;11.47;;;16.60;99.90;;;;;;5106275;28;20237;-72
2021/09/26 03:53:03;;;;;;;12.23;11.13;;;16.60;99.90;;;;;;5109350;28;20604;-71
2021/09/26 03:55:30;;;;;;;12.50;11.40;;;16.60;99.90;;;;;;5109458;28;20542;-72
2021/09/26 03:57:56;;;;;;;13.97;12.53;;;16.60;99.90;;;;;;5109106;28;20294;-72
2021/09/26 04:00:23;;;;;;;12.90;11.70;;;16.60;99.90;;;;;;5109265;28;20206;-72
2021/09/26 04:02:51;;;;;;;12.80;11.60;;;16.60;99.90;;;;;;5109095;28;20213;-73
2021/09/26 04:05:18;;;;;;;13.30;12.10;;;16.60;99.90;;;;;;5109090;28;20226;-72
2021/09/26 04:07:44;;;;;;;13.73;12.33;;;16.60;99.90;;;;;;5108608;28;20741;-72
2021/09/26 04:10:12;;;;;;;14.63;13.10;;;16.60;99.90;;;;;;5109179;28;20632;-72
2021/09/26 04:12:40;;;;;;;13.10;12.07;;;16.70;99.90;;;;;;5108799;28;20225;-72
2021/09/26 04:15:08;;;;;;;13.67;12.43;;;16.70;99.90;;;;;;5108931;28;20206;-72
2021/09/26 04:17:34;;;;;;;13.40;12.27;;;16.70;99.90;;;;;;5109097;28;20206;-73
2021/09/26 04:20:04;;;;;;;13.63;12.40;;;16.70;99.90;;;;;;5108820;28;20238;-73
2021/09/26 04:22:31;;;;;;;13.03;11.93;;;16.70;99.90;;;;;;5108945;28;20251;-72
2021/09/26 04:24:57;;;;;;;13.40;12.07;;;16.70;99.90;;;;;;5108722;28;20213;-73
2021/09/26 04:27:24;;;;;;;13.53;12.27;;;16.70;99.90;;;;;;5109061;28;20201;-72
2021/09/26 04:29:52;;;;;;;13.53;12.23;;;16.70;99.90;;;;;;5108678;28;20255;-73
2021/09/26 04:32:19;;;;;;;12.77;11.77;;;16.70;99.90;;;;;;5108603;28;20312;-73
2021/09/26 04:34:46;;;;;;;13.87;12.57;;;16.70;99.90;;;;;;5108667;28;20237;-73
2021/09/26 04:37:14;;;;;;;13.73;11.33;;;16.70;99.90;;;;;;5108614;28;20206;-73
2021/09/26 04:39:41;;;;;;;13.33;12.13;;;16.70;99.90;;;;;;5108605;28;20234;-73
2021/09/26 04:42:08;;;;;;;12.40;11.43;;;16.70;99.90;;;;;;5108821;28;21015;-73
2021/09/26 04:44:34;;;;;;;12.83;11.63;;;16.70;99.90;;;;;;5108644;28;20226;-73
2021/09/26 04:47:01;;;;;;;16.47;13.13;;;16.70;99.90;;;;;;5108678;28;20237;-73
2021/09/26 04:49:29;;;;;;;13.50;12.33;;;16.60;99.90;;;;;;5111895;28;20258;-73
2021/09/26 04:51:55;;;;;;;14.00;12.80;;;16.60;99.90;;;;;;5112879;28;20210;-73
2021/09/26 04:54:24;;;;;;;13.53;12.43;;;16.60;99.90;;;;;;5112770;28;20210;-73
2021/09/26 04:56:51;;;;;;;13.47;11.97;;;16.60;99.90;;;;;;5112938;28;20298;-72
2021/09/26 04:59:17;;;;;;;13.40;12.27;;;16.50;99.90;;;;;;5112448;28;20710;-71
2021/09/26 05:01:45;;;;;;;13.20;12.00;;;16.60;99.90;;;;;;5112663;28;20213;-72
2021/09/26 05:04:11;;;;;;;13.43;12.23;;;16.60;99.90;;;;;;5112077;28;20625;-72
2021/09/26 05:06:38;;;;;;;13.97;12.67;;;16.60;99.90;;;;;;5112393;28;20257;-72
2021/09/26 05:09:05;;;;;;;13.50;12.30;;;16.60;99.90;;;;;;5112486;28;20222;-72
2021/09/26 05:11:33;;;;;;;13.33;12.20;;;16.60;99.90;;;;;;5112614;28;20270;-71
2021/09/26 05:14:00;;;;;;;13.90;12.70;;;16.50;99.90;;;;;;5112312;28;20230;-72
2021/09/26 05:16:27;;;;;;;14.43;13.10;;;16.50;99.90;;;;;;5112842;27;20202;-72
2021/09/26 05:18:53;;;;;;;13.80;12.60;;;16.50;99.90;;;;;;5111971;28;20636;-72
2021/09/26 05:21:20;;;;;;;13.90;12.73;;;16.50;99.90;;;;;;5112292;28;20652;-73
2021/09/26 05:23:47;;;;;;;12.60;11.50;;;16.50;99.90;;;;;;5112290;28;20206;-72
2021/09/26 05:26:14;;;;;;;14.17;12.77;;;16.50;99.90;;;;;;5111995;28;20763;-72
2021/09/26 05:28:42;;;;;;;14.00;12.70;;;16.60;99.90;;;;;;5112060;28;20210;-72
2021/09/26 05:31:08;;;;;;;13.40;11.93;;;16.60;99.90;;;;;;5111857;28;20706;-72
2021/09/26 05:33:35;;;;;;;13.10;12.00;;;16.70;99.90;;;;;;5112142;28;20253;-72
2021/09/26 05:36:01;;;;;;;13.40;12.20;;;16.70;99.90;;;;;;5111992;28;20206;-72
2021/09/26 05:38:28;;;;;;;13.37;12.07;;;16.70;99.90;;;;;;5112020;27;20286;-72
2021/09/26 05:40:55;;;;;;;13.43;12.27;;;16.70;99.90;;;;;;5111924;28;20244;-72
2021/09/26 05:43:21;;;;;;;13.10;12.07;;;16.70;99.90;;;;;;5111758;28;20539;-72
2021/09/26 05:45:49;;;;;;;13.80;12.17;;;16.80;99.90;;;;;;5111713;28;20239;-72
2021/09/26 05:48:17;;;;;;;13.37;12.13;;;16.80;99.90;;;;;;5111740;28;20206;-72
2021/09/26 05:50:43;;;;;;;13.47;12.20;;;16.80;99.90;;;;;;5111661;28;20207;-72
2021/09/26 05:53:10;;;;;;;13.07;11.87;;;16.80;99.90;;;;;;5111283;28;20230;-72
2021/09/26 05:55:37;;;;;;;13.20;12.00;;;16.80;99.90;;;;;;5111497;28;20250;-72
2021/09/26 05:58:03;;;;;;;13.20;12.00;;;16.90;99.90;;;;;;5111064;28;20714;-72
2021/09/26 06:00:30;;;;;;;13.43;12.23;;;16.90;99.90;;;;;;5111376;28;20206;-73
2021/09/26 06:02:58;;;;;;;13.63;12.30;;;16.90;99.90;;;;;;5111435;28;20307;-72
2021/09/26 06:05:25;;;;;;;13.77;12.57;;;16.90;99.90;;;;;;5111293;28;20776;-73
2021/09/26 06:07:51;;;;;;;13.33;12.10;;;16.90;99.90;;;;;;5110869;28;20222;-73
2021/09/26 06:10:18;;;;;;;13.63;12.33;;;16.90;99.90;;;;;;5111003;28;20575;-72
2021/09/26 06:12:45;;;;;;;13.83;12.53;;;16.90;99.90;;;;;;5111012;28;20630;-72
2021/09/26 06:15:12;;;;;;;13.17;11.87;;;16.90;99.90;;;;;;5111461;28;20242;-72
2021/09/26 06:17:39;;;;;;;13.13;11.93;;;16.90;99.90;;;;;;5111097;28;20202;-72
2021/09/26 06:20:09;;;;;;;13.20;11.90;;;16.90;99.90;;;;;;5110988;28;20241;-72
2021/09/26 06:22:36;;;;;;;13.23;12.00;;;16.90;99.90;;;;;;5111182;28;20234;-72
2021/09/26 06:25:02;;;;;;;12.80;11.60;;;16.90;99.90;;;;;;5111239;28;20286;-72
2021/09/26 06:27:29;;;;;;;13.67;12.30;;;16.90;99.90;;;;;;5110913;28;20303;-72
2021/09/26 06:29:56;;;;;;;12.17;11.17;;;16.90;99.90;;;;;;5110822;28;20267;-72
2021/09/26 06:32:23;;;;;;;12.57;11.47;;;16.90;99.90;;;;;;5110864;28;20202;-72
2021/09/26 06:34:49;;;;;;;12.77;11.60;;;16.90;99.90;;;;;;5110727;28;20230;-72
2021/09/26 06:37:17;;;;;;;12.07;11.03;;;17.00;99.90;;;;;;5110992;27;20206;-72
2021/09/26 06:39:44;;;;;;;12.00;11.00;;;17.00;99.90;;;;;;5110389;28;20729;-72
2021/09/26 06:42:11;;;;;;;11.60;10.60;;;17.00;99.90;;;;;;5111103;28;20206;-71
2021/09/26 06:44:37;;;;;;;12.10;11.10;;;17.00;99.90;;;;;;5110737;28;20234;-72
2021/09/26 06:47:05;;;;;;;11.87;10.97;;;17.00;99.90;;;;;;5110373;28;20266;-72
2021/09/26 06:49:31;;;;;;;11.23;10.33;;;17.10;99.90;;;;;;5110613;28;20221;-73
2021/09/26 06:51:58;;;;;;;12.57;11.03;;;17.10;99.90;;;;;;5110139;28;20748;-72
2021/09/26 06:54:26;;;;;;;11.60;10.53;;;17.20;99.90;;;;;;5110182;28;20756;-71
2021/09/26 06:56:54;;;;;;;11.13;10.33;;;17.20;99.90;;;;;;5110406;28;20206;-71
2021/09/26 06:59:20;;;;;;;11.57;10.37;;;17.30;99.90;;;;;;5110078;28;20677;-72
2021/09/26 07:01:47;;;;;;;10.83;9.83;;;17.30;99.90;;;;;;5110328;28;20233;-72
2021/09/26 07:04:13;;;;;;;11.73;10.53;;;17.30;99.90;;;;;;5110346;28;20263;-72
2021/09/26 07:06:40;;;;;;;11.90;10.90;;;17.40;99.90;;;;;;5109681;28;20625;-72
2021/09/26 07:09:07;;;;;;;11.83;10.73;;;17.40;99.90;;;;;;5109980;28;20226;-73
2021/09/26 07:11:35;;;;;;;11.07;10.03;;;17.50;99.90;;;;;;5109175;28;20842;-71
2021/09/26 07:14:02;;;;;;;10.43;9.40;;;17.60;99.90;;;;;;5109684;28;20226;-71
2021/09/26 07:16:29;;;;;;;10.43;9.53;;;17.60;99.90;;;;;;5110206;28;20240;-71
2021/09/26 07:18:55;;;;;;;10.27;9.27;;;17.60;99.90;;;;;;5109785;28;20202;-71
2021/09/26 07:21:23;;;;;;;9.50;8.67;;;17.60;99.90;;;;;;5110105;28;20259;-71
2021/09/26 07:23:49;;;;;;;9.87;9.10;;;17.70;99.90;;;;;;5109543;28;20198;-71
2021/09/26 07:26:16;;;;;;;9.13;8.33;;;17.80;99.90;;;;;;5110029;28;20212;-71
2021/09/26 07:28:44;;;;;;;9.57;8.77;;;17.80;99.90;;;;;;5109720;28;20242;-71
2021/09/26 07:31:11;;;;;;;9.07;8.47;;;17.90;99.90;;;;;;5110182;28;20581;-71
2021/09/26 07:33:38;;;;;;;8.47;7.77;;;17.90;99.90;;;;;;5109744;28;20229;-71
2021/09/26 07:36:05;;;;;;;9.30;8.47;;;18.00;99.90;;;;;;5109433;28;20222;-71
2021/09/26 07:38:32;;;;;;;8.20;7.60;;;18.00;99.90;;;;;;5109549;28;20286;-72
2021/09/26 07:40:58;;;;;;;8.20;7.40;;;18.10;99.90;;;;;;5109488;28;20275;-71
2021/09/26 07:43:26;;;;;;;8.27;7.47;;;18.10;99.90;;;;;;5109386;28;20280;-72
2021/09/26 07:45:54;;;;;;;7.30;6.80;;;18.20;99.90;;;;;;5109123;28;20660;-71
2021/09/26 07:48:21;;;;;;;6.37;5.97;;;18.20;99.90;;;;;;5109409;28;20695;-72
2021/09/26 07:50:49;;;;;;;6.10;5.60;;;18.20;99.90;;;;;;5109466;28;20206;-71
2021/09/26 07:53:16;;;;;;;7.30;6.70;;;18.30;99.90;;;;;;5109209;28;20280;-72
2021/09/26 07:55:43;;;;;;;7.57;6.50;;;18.30;99.90;;;;;;5109498;28;20202;-71
2021/09/26 07:58:10;;;;;;;7.03;6.37;;;18.40;99.90;;;;;;5109081;28;20238;-72
2021/09/26 08:00:36;;;;;;;6.37;5.93;;;18.40;99.90;;;;;;5109589;28;20259;-73
2021/09/26 08:03:04;;;;;;;7.07;6.37;;;18.50;99.90;;;;;;5109838;28;20639;-73
2021/09/26 08:05:31;;;;;;;7.17;6.47;;;18.50;99.90;;;;;;5109677;27;20229;-73
2021/09/26 08:07:58;;;;;;;6.50;6.10;;;18.60;99.90;;;;;;5109343;28;20244;-73
2021/09/26 08:10:24;;;;;;;6.50;5.90;;;18.60;99.90;;;;;;5109468;28;20237;-73
2021/09/26 08:12:51;;;;;;;6.93;6.40;;;18.70;99.90;;;;;;5109363;28;20247;-72
2021/09/26 08:15:18;;;;;;;6.43;5.90;;;18.80;99.90;;;;;;5109024;28;20269;-72
2021/09/26 08:17:44;;;;;;;8.53;7.83;;;18.80;99.90;;;;;;5108822;28;20304;-72
2021/09/26 08:20:13;;;;;;;6.90;6.23;;;18.80;99.90;;;;;;5108652;28;20271;-72
2021/09/26 08:22:40;;;;;;;8.13;6.30;;;18.90;99.90;;;;;;5109199;28;20683;-73
2021/09/26 08:25:07;;;;;;;6.10;5.53;;;18.90;99.90;;;;;;5108828;27;20233;-73
2021/09/26 08:27:36;;;;;;;6.57;6.03;;;19.00;99.90;;;;;;5109083;28;20206;-73
2021/09/26 08:30:07;;;;;;;6.50;6.00;;;19.00;99.90;;;;;;5108895;28;20240;-73
2021/09/26 08:32:34;;;;;;;6.30;5.70;;;19.00;99.90;;;;;;5109140;28;20277;-73
2021/09/26 08:35:00;;;;;;;5.37;5.07;;;19.10;99.90;;;;;;5109070;28;20265;-73
2021/09/26 08:37:28;;;;;;;5.97;5.57;;;19.20;99.90;;;;;;5108749;28;20263;-72
2021/09/26 08:39:55;;;;;;;5.97;5.57;;;19.30;99.90;;;;;;5108668;28;20206;-72
2021/09/26 08:42:22;;;;;;;6.20;5.70;;;19.30;99.90;;;;;;5108512;28;20234;-72
2021/09/26 08:44:50;;;;;;;5.73;5.33;;;19.50;99.90;;;;;;5108656;28;20599;-72
2021/09/26 08:47:17;;;;;;;6.03;5.53;;;19.60;99.90;;;;;;5108690;28;20263;-72
2021/09/26 08:49:44;;;;;;;6.73;6.23;;;19.80;99.90;;;;;;5108730;28;20206;-73
2021/09/26 08:52:11;;;;;;;6.20;5.80;;;19.90;99.90;;;;;;5105190;28;20199;-73
2021/09/26 08:54:39;;;;;;;6.70;5.97;;;19.90;99.90;;;;;;5100012;28;20264;-73
2021/09/26 08:57:07;;;;;;;6.67;6.17;;;20.00;99.90;;;;;;5097314;28;20564;-72
2021/09/26 08:59:36;;;;;;;5.90;5.43;;;20.00;99.90;;;;;;5105810;28;20233;-72
2021/09/26 09:02:03;;;;;;;6.73;6.13;;;20.00;99.90;;;;;;5084354;28;20731;-72
2021/09/26 09:04:38;;;;;;;6.37;5.80;;;20.10;99.90;;;;;;5085365;28;20241;-73
2021/09/26 09:07:06;;;;;;;5.60;5.10;;;20.20;99.90;;;;;;5102403;28;20623;-73
2021/09/26 09:09:47;;;;;;;5.57;5.03;;;20.30;99.90;;;;;;5120007;28;20213;-72
2021/09/26 09:12:15;;;;;;;6.47;6.00;;;20.50;99.90;;;;;;5125800;28;20221;-72
2021/09/26 09:14:51;;;;;;;5.37;4.93;;;20.60;99.90;;;;;;5126016;28;20975;-74
2021/09/26 09:17:28;;;;;;;6.20;5.37;;;20.60;99.90;;;;;;5113914;28;20205;-73
2021/09/26 09:20:14;;;;;;;5.70;5.20;;;20.60;99.90;;;;;;5105442;28;20266;-74
2021/09/26 09:22:42;;;;;;;5.70;5.30;;;20.60;99.90;;;;;;5090644;28;20233;-73
2021/09/26 09:25:09;;;;;;;5.93;5.37;;;20.60;99.90;;;;;;5104882;28;20213;-73
2021/09/26 09:27:37;;;;;;;5.97;5.10;;;20.60;99.90;;;;;;5105416;28;20736;-73
2021/09/26 09:30:05;;;;;;;5.00;4.70;;;20.60;99.90;;;;;;5105058;28;20210;-73
2021/09/26 09:32:31;;;;;;;5.50;5.00;;;20.60;99.90;;;;;;5104705;28;20702;-73
2021/09/26 09:34:58;;;;;;;5.90;5.50;;;20.70;99.90;;;;;;5110400;28;20234;-73
2021/09/26 09:37:27;;;;;;;5.80;5.40;;;20.80;99.90;;;;;;5112241;28;20560;-73
2021/09/26 09:40:06;;;;;;;5.37;4.97;;;20.80;99.90;;;;;;5112035;28;20262;-73
2021/09/26 09:42:40;;;;;;;5.97;5.57;;;20.80;99.90;;;;;;5111988;28;20230;-73
2021/09/26 09:45:22;;;;;;;5.60;5.20;;;20.80;99.90;;;;;;5110782;27;20216;-73
2021/09/26 09:48:06;;;;;;;4.97;4.57;;;20.90;99.90;;;;;;5110653;28;20248;-72
2021/09/26 09:50:46;;;;;;;4.97;4.67;;;20.90;99.90;;;;;;5110691;28;20193;-73
2021/09/26 09:53:28;;;;;;;5.47;5.07;;;21.00;99.90;;;;;;5111395;28;20244;-73
2021/09/26 09:56:15;;;;;;;5.43;4.97;;;21.10;99.90;;;;;;5104255;28;20223;-73
2021/09/26 09:58:45;;;;;;;5.10;4.70;;;21.20;99.90;;;;;;5090616;28;20234;-73
2021/09/26 10:01:14;;;;;;;5.28;4.60;;;21.20;99.90;;;;;;5091197;28;20612;-73
2021/09/26 10:03:47;;;;;;;5.03;4.70;;;21.30;99.90;;;;;;5091171;28;20206;-73
2021/09/26 10:06:40;;;;;;;5.00;4.57;;;21.30;99.90;;;;;;5091005;28;20231;-73
2021/09/26 10:09:22;;;;;;;4.67;4.27;;;21.40;99.90;;;;;;5088088;28;20293;-73
2021/09/26 10:11:51;;;;;;;4.87;4.57;;;21.50;99.90;;;;;;5090917;28;20664;-73
2021/09/26 10:14:20;;;;;;;4.53;4.00;;;21.60;99.90;;;;;;5090726;28;20280;-73
2021/09/26 10:16:48;;;;;;;4.68;4.28;;;21.60;99.90;;;;;;5090596;28;20206;-73
2021/09/26 10:19:20;;;;;;;4.60;4.30;;;21.60;99.90;;;;;;5090551;28;20252;-73
2021/09/26 10:21:47;;;;;;;4.32;4.03;;;21.60;99.90;;;;;;5090387;28;20663;-73
2021/09/26 10:24:15;;;;;;;4.28;3.97;;;21.60;99.90;;;;;;5090581;28;20254;-73
2021/09/26 10:26:44;;;;;;;4.30;4.00;;;21.70;99.90;;;;;;5090251;28;20599;-73
2021/09/26 10:29:12;;;;;;;4.60;4.20;;;21.70;99.90;;;;;;5090498;28;20206;-73
2021/09/26 10:31:41;;;;;;;4.28;3.97;;;21.80;99.90;;;;;;5090716;28;20230;-73
2021/09/26 10:34:08;;;;;;;4.53;4.22;;;21.90;99.90;;;;;;5090696;28;20234;-73
2021/09/26 10:36:37;;;;;;;4.30;4.00;;;21.90;99.90;;;;;;5090770;28;20211;-73
2021/09/26 10:39:06;;;;;;;4.50;4.13;;;22.10;99.90;;;;;;5090721;28;20268;-73
2021/09/26 10:41:33;;;;;;;4.10;3.90;;;22.20;99.90;;;;;;5090307;28;20668;-73
2021/09/26 10:44:22;;;;;;;4.28;4.05;;;22.30;99.90;;;;;;5090223;28;20268;-73
2021/09/26 10:47:12;;;;;;;4.57;4.15;;;22.40;99.90;;;;;;5089154;28;20203;-73
2021/09/26 10:49:39;;;;;;;4.35;3.95;;;22.40;99.90;;;;;;5090239;28;20191;-73
2021/09/26 10:52:29;;;;;;;4.50;4.00;;;22.50;99.90;;;;;;5092898;27;20233;-73
2021/09/26 10:55:21;;;;;;;4.40;4.10;;;22.60;99.90;;;;;;5111635;27;20236;-73
2021/09/26 10:57:49;;;;;;;4.75;4.40;;;22.70;99.90;;;;;;5117958;27;20321;-73
2021/09/26 11:00:28;;;;;;;4.38;3.83;;;22.90;99.90;;;;;;5100619;27;20237;-73
2021/09/26 11:02:57;;;;;;;6.28;4.13;;;23.00;99.90;;;;;;5102764;28;20208;-73
2021/09/26 11:05:32;;;;;;;5.05;3.72;;;23.00;99.90;;;;;;5104703;28;20278;-73
2021/09/26 11:08:00;;;;;;;4.05;3.75;;;22.90;99.90;;;;;;5124662;27;20221;-73
2021/09/26 11:10:39;;;;;;;4.00;3.70;;;22.80;99.90;;;;;;5130570;27;20201;-73
2021/09/26 11:13:12;;;;;;;4.32;3.60;;;22.90;99.90;;;;;;5119418;27;20259;-73
2021/09/26 11:16:01;;;;;;;4.00;3.70;;;23.10;99.90;;;;;;5108568;28;20225;-73
2021/09/26 11:18:51;;;;;;;4.15;3.90;;;23.30;99.90;;;;;;5108577;28;20702;-73
2021/09/26 11:21:50;;;;;;;4.28;3.95;;;23.40;99.90;;;;;;5108394;28;20194;-73
2021/09/26 11:24:46;;;;;;;4.35;4.05;;;23.40;99.90;;;;;;5108314;28;20259;-73
2021/09/26 11:27:19;;;;;;;3.75;3.47;;;23.60;99.90;;;;;;5108326;28;20865;-73
2021/09/26 11:30:17;;;;;;;4.20;3.90;;;23.70;99.90;;;;;;5109672;28;20292;-73
2021/09/26 11:32:58;;;;;;;4.43;3.45;;;23.70;99.90;;;;;;5109009;28;20198;-73
2021/09/26 11:35:29;;;;;;;3.45;3.05;;;23.80;99.90;;;;;;5109595;28;20218;-73
2021/09/26 11:37:59;;;;;;;3.70;3.40;;;23.80;99.90;;;;;;5109785;28;20196;-73
2021/09/26 11:40:55;;;;;;;3.80;3.50;;;23.90;99.90;;;;;;5109735;28;20582;-73
2021/09/26 11:43:23;;;;;;;3.35;3.15;;;24.00;99.90;;;;;;5109443;28;20226;-73
2021/09/26 11:45:51;;;;;;;4.03;3.72;;;24.00;99.90;;;;;;5109868;28;20255;-72
2021/09/26 11:48:18;;;;;;;3.50;3.30;;;24.10;99.90;;;;;;5109381;28;20202;-73
2021/09/26 11:50:47;;;;;;;4.03;3.72;;;24.10;99.90;;;;;;5109165;28;20544;-73
2021/09/26 11:53:16;;;;;;;4.60;4.20;;;24.30;99.90;;;;;;5109181;28;20357;-72
2021/09/26 11:55:43;;;;;;;4.05;3.75;;;24.40;99.90;;;;;;5109210;28;20245;-73
2021/09/26 11:58:12;;;;;;;3.60;3.38;;;24.50;99.90;;;;;;5108749;28;20234;-73
2021/09/26 12:00:41;;;;;;;3.80;3.42;;;24.60;99.90;;;;;;5109336;28;20206;-73
2021/09/26 12:03:16;;;;;;;3.80;3.50;;;24.60;99.90;;;;;;5109342;28;20254;-73
2021/09/26 12:05:43;;;;;;;3.80;3.50;;;24.70;99.90;;;;;;5109161;28;20596;-73
2021/09/26 12:08:11;;;;;;;4.03;3.72;;;24.70;99.90;;;;;;5108860;28;20226;-73
2021/09/26 12:10:38;;;;;;;4.85;3.78;;;24.90;99.90;;;;;;5109082;28;20206;-73
2021/09/26 12:13:14;;;;;;;3.42;3.22;;;25.00;99.90;;;;;;5109103;28;20206;-73
2021/09/26 12:15:41;;;;;;;3.50;3.20;;;25.00;99.90;;;;;;5109071;28;20237;-73
2021/09/26 12:18:08;;;;;;;3.58;3.28;;;25.00;99.90;;;;;;5108658;28;20236;-72
2021/09/26 12:20:35;;;;;;;3.58;3.28;;;25.10;99.90;;;;;;5108914;28;20210;-73
2021/09/26 12:23:03;;;;;;;3.58;3.28;;;25.20;99.90;;;;;;5108803;28;20233;-73
2021/09/26 12:25:34;;;;;;;3.10;2.95;;;25.00;99.90;;;;;;5108934;28;20206;-73
2021/09/26 12:28:03;;;;;;;3.70;3.50;;;24.90;99.90;;;;;;5108856;28;20187;-73
2021/09/26 12:30:44;;;;;;;4.05;3.47;;;24.80;99.90;;;;;;5108799;28;20255;-73
2021/09/26 12:33:20;;;;;;;3.60;3.40;;;24.60;99.90;;;;;;5108713;28;20222;-73
2021/09/26 12:35:49;;;;;;;4.05;3.47;;;24.40;99.90;;;;;;5108823;28;20221;-73
2021/09/26 12:38:23;;;;;;;3.90;3.50;;;24.30;99.90;;;;;;5108306;28;20213;-73
2021/09/26 12:40:54;;;;;;;4.25;3.28;;;24.20;99.90;;;;;;5108707;28;20214;-73
2021/09/26 12:43:23;;;;;;;4.35;3.90;;;24.20;99.90;;;;;;5108413;28;20255;-73
2021/09/26 12:45:50;;;;;;;9.48;4.18;;;24.30;99.90;;;;;;5108490;28;20263;-73
2021/09/26 12:48:19;;;;;;;4.03;3.72;;;24.40;99.90;;;;;;5108218;28;20680;-73